createdAt,value
2018-12-21T00:00:36.149Z,4.90
2018-12-21T00:03:04.405Z,5.00
2018-12-21T00:05:32.566Z,5.10
2018-12-21T00:08:00.993Z,5.00
2018-12-21T00:10:29.195Z,5.00
2018-12-21T00:12:57.364Z,5.00
2018-12-21T00:15:25.673Z,5.10
2018-12-21T00:17:53.836Z,5.10
2018-12-21T00:20:22.011Z,5.10
2018-12-21T00:22:50.221Z,4.90
2018-12-21T00:25:18.467Z,5.00
2018-12-21T00:27:46.733Z,5.00
2018-12-21T00:30:16.908Z,5.10
2018-12-21T00:32:50.588Z,4.90
2018-12-21T00:35:24.521Z,5.00
2018-12-21T00:37:58.315Z,4.80
2018-12-21T00:40:32.172Z,4.80
2018-12-21T00:43:18.108Z,5.00
2018-12-21T00:45:48.325Z,5.10
2018-12-21T00:48:16.496Z,5.10
2018-12-21T00:50:44.674Z,5.20
2018-12-21T00:53:12.915Z,4.90
2018-12-21T00:55:41.098Z,4.90
2018-12-21T00:58:09.265Z,4.90
2018-12-21T01:00:37.500Z,5.10
2018-12-21T01:03:06.808Z,5.10
2018-12-21T01:05:35.225Z,5.00
2018-12-21T01:08:03.568Z,5.00
2018-12-21T01:10:31.740Z,5.10
2018-12-21T01:12:59.912Z,5.10
2018-12-21T01:15:28.108Z,5.10
2018-12-21T01:17:56.392Z,5.10
2018-12-21T01:20:25.262Z,5.20
2018-12-21T01:22:53.413Z,5.10
2018-12-21T01:25:21.612Z,5.20
2018-12-21T01:27:49.824Z,5.20
2018-12-21T01:30:18.040Z,5.10
2018-12-21T01:32:46.213Z,5.20
2018-12-21T01:35:14.439Z,5.20
2018-12-21T01:37:43.205Z,5.30
2018-12-21T01:40:11.417Z,5.30
2018-12-21T01:42:39.634Z,5.10
2018-12-21T01:45:07.879Z,5.10
2018-12-21T01:47:36.088Z,5.10
2018-12-21T01:50:05.644Z,5.10
2018-12-21T01:52:33.825Z,5.30
2018-12-21T01:55:02.082Z,5.20
2018-12-21T01:57:30.348Z,5.30
2018-12-21T01:59:58.526Z,5.30
2018-12-21T02:02:26.726Z,5.20
2018-12-21T02:04:54.895Z,5.30
2018-12-21T02:07:23.070Z,5.10
2018-12-21T02:09:51.270Z,5.00
2018-12-21T02:12:19.435Z,5.10
2018-12-21T02:14:47.644Z,5.10
2018-12-21T02:17:15.810Z,5.10
2018-12-21T02:19:43.990Z,5.20
2018-12-21T02:22:12.213Z,5.20
2018-12-21T02:24:40.423Z,5.00
2018-12-21T02:27:08.663Z,5.10
2018-12-21T02:29:36.872Z,5.20
2018-12-21T02:32:05.079Z,5.20
2018-12-21T02:34:33.253Z,5.10
2018-12-21T02:37:01.514Z,5.20
2018-12-21T02:39:29.695Z,5.20
2018-12-21T02:41:57.913Z,5.20
2018-12-21T02:44:26.152Z,5.20
2018-12-21T02:46:54.318Z,5.00
2018-12-21T02:49:22.490Z,5.30
2018-12-21T02:51:50.736Z,5.20
2018-12-21T02:54:18.955Z,5.10
2018-12-21T02:56:47.117Z,5.10
2018-12-21T02:59:15.329Z,5.30
2018-12-21T03:01:43.542Z,5.30
2018-12-21T03:04:11.710Z,5.20
2018-12-21T03:06:39.912Z,5.20
2018-12-21T03:09:09.668Z,5.20
2018-12-21T03:11:37.898Z,5.00
2018-12-21T03:14:06.398Z,5.20
2018-12-21T03:16:34.662Z,5.30
2018-12-21T03:19:02.838Z,5.30
2018-12-21T03:21:31.082Z,5.40
2018-12-21T03:23:59.258Z,5.50
2018-12-21T03:26:27.430Z,5.40
2018-12-21T03:28:55.634Z,5.40
2018-12-21T03:31:23.799Z,5.60
2018-12-21T03:33:52.015Z,5.60
2018-12-21T03:36:20.231Z,5.60
2018-12-21T03:38:48.403Z,5.70
2018-12-21T03:41:16.564Z,5.60
2018-12-21T03:43:44.782Z,5.40
2018-12-21T03:46:12.999Z,5.50
2018-12-21T03:48:41.161Z,5.50
2018-12-21T03:51:09.430Z,5.50
2018-12-21T03:53:37.703Z,5.30
2018-12-21T03:56:05.884Z,5.40
2018-12-21T03:58:34.135Z,5.30
2018-12-21T04:01:02.304Z,5.40
2018-12-21T04:03:30.503Z,5.60
2018-12-21T04:05:58.717Z,5.40
2018-12-21T04:08:26.885Z,5.60
2018-12-21T04:10:55.052Z,5.60
2018-12-21T04:13:23.234Z,5.60
2018-12-21T04:15:51.390Z,5.70
2018-12-21T04:18:19.603Z,5.60
2018-12-21T04:20:47.809Z,5.50
2018-12-21T04:23:15.995Z,5.50
2018-12-21T04:25:44.177Z,5.30
2018-12-21T04:28:12.378Z,5.30
2018-12-21T04:30:40.541Z,5.40
2018-12-21T04:33:08.798Z,5.40
2018-12-21T04:35:37.050Z,5.40
2018-12-21T04:38:05.352Z,5.30
2018-12-21T04:40:33.530Z,5.50
2018-12-21T04:43:01.804Z,5.50
2018-12-21T04:45:30.037Z,5.70
2018-12-21T04:47:58.218Z,5.50
2018-12-21T04:50:26.403Z,5.70
2018-12-21T04:52:54.608Z,5.70
2018-12-21T04:55:22.785Z,5.70
2018-12-21T04:57:50.991Z,5.80
2018-12-21T05:00:19.191Z,5.80
2018-12-21T05:02:47.347Z,5.80
2018-12-21T05:05:15.561Z,5.70
2018-12-21T05:07:43.730Z,5.60
2018-12-21T05:10:11.984Z,5.60
2018-12-21T05:12:40.193Z,5.50
2018-12-21T05:15:08.482Z,5.60
2018-12-21T05:17:36.642Z,5.70
2018-12-21T05:20:05.654Z,5.60
2018-12-21T05:22:33.835Z,5.70
2018-12-21T05:25:02.053Z,5.70
2018-12-21T05:27:30.257Z,5.60
2018-12-21T05:29:58.473Z,5.60
2018-12-21T05:32:26.688Z,5.60
2018-12-21T05:34:54.896Z,5.60
2018-12-21T05:37:23.068Z,5.60
2018-12-21T05:39:51.236Z,5.70
2018-12-21T05:42:19.538Z,5.70
2018-12-21T05:44:47.702Z,5.60
2018-12-21T05:47:15.884Z,5.60
2018-12-21T05:49:44.163Z,5.60
2018-12-21T05:52:12.347Z,5.60
2018-12-21T05:54:40.519Z,5.70
2018-12-21T05:57:08.769Z,5.60
2018-12-21T05:59:36.951Z,5.50
2018-12-21T06:02:05.493Z,5.70
2018-12-21T06:04:33.960Z,5.70
2018-12-21T06:07:02.165Z,5.60
2018-12-21T06:09:30.341Z,5.60
2018-12-21T06:11:58.560Z,5.70
2018-12-21T06:14:26.715Z,5.70
2018-12-21T06:16:54.922Z,5.60
2018-12-21T06:19:23.369Z,5.80
2018-12-21T06:21:51.536Z,5.70
2018-12-21T06:24:19.722Z,5.70
2018-12-21T06:26:47.967Z,5.70
2018-12-21T06:29:16.182Z,5.80
2018-12-21T06:31:44.343Z,5.70
2018-12-21T06:34:12.527Z,5.80
2018-12-21T06:36:40.692Z,5.80
2018-12-21T06:39:08.870Z,5.80
2018-12-21T06:41:37.071Z,5.90
2018-12-21T06:44:05.249Z,5.70
2018-12-21T06:46:33.429Z,5.70
2018-12-21T06:49:01.638Z,5.70
2018-12-21T06:51:29.847Z,5.80
2018-12-21T06:53:58.052Z,5.70
2018-12-21T06:56:26.239Z,5.70
2018-12-21T06:58:54.427Z,5.60
2018-12-21T07:01:22.591Z,5.70
2018-12-21T07:03:50.789Z,5.70
2018-12-21T07:06:18.989Z,5.60
2018-12-21T07:08:47.147Z,5.60
2018-12-21T07:11:15.340Z,5.70
2018-12-21T07:13:43.545Z,5.80
2018-12-21T07:16:11.717Z,5.80
2018-12-21T07:18:39.961Z,5.70
2018-12-21T07:21:08.124Z,5.60
2018-12-21T07:23:36.297Z,5.80
2018-12-21T07:26:04.562Z,5.70
2018-12-21T07:28:32.788Z,5.80
2018-12-21T07:31:00.958Z,5.70
2018-12-21T07:33:29.210Z,5.80
2018-12-21T07:35:57.366Z,5.70
2018-12-21T07:38:25.563Z,5.80
2018-12-21T07:40:53.779Z,5.60
2018-12-21T07:43:21.956Z,5.70
2018-12-21T07:45:50.124Z,5.60
2018-12-21T07:48:18.333Z,5.80
2018-12-21T07:50:46.622Z,5.90
2018-12-21T07:53:14.889Z,6.00
2018-12-21T07:55:43.276Z,5.90
2018-12-21T07:58:11.455Z,5.90
2018-12-21T08:00:39.670Z,5.90
2018-12-21T08:03:07.879Z,5.90
2018-12-21T08:05:36.049Z,6.10
2018-12-21T08:08:04.221Z,6.00
2018-12-21T08:10:32.402Z,5.90
2018-12-21T08:13:00.600Z,5.90
2018-12-21T08:15:28.764Z,5.80
2018-12-21T08:17:56.965Z,5.90
2018-12-21T08:20:25.183Z,5.80
2018-12-21T08:22:53.362Z,5.90
2018-12-21T08:25:21.607Z,5.80
2018-12-21T08:27:49.945Z,5.80
2018-12-21T08:30:18.183Z,5.80
2018-12-21T08:32:46.374Z,5.80
2018-12-21T08:35:14.540Z,5.80
2018-12-21T08:37:42.741Z,5.90
2018-12-21T08:40:10.952Z,5.80
2018-12-21T08:42:39.288Z,5.90
2018-12-21T08:45:08.336Z,6.00
2018-12-21T08:47:36.509Z,5.90
2018-12-21T08:50:06.922Z,5.90
2018-12-21T08:52:35.093Z,5.90
2018-12-21T08:55:03.341Z,5.90
2018-12-21T08:57:31.592Z,5.90
2018-12-21T08:59:59.800Z,5.80
2018-12-21T09:02:28.005Z,6.00
2018-12-21T09:04:56.200Z,6.00
2018-12-21T09:07:24.409Z,6.00
2018-12-21T09:09:52.621Z,6.00
2018-12-21T09:12:20.825Z,6.00
2018-12-21T09:14:49.000Z,6.00
2018-12-21T09:17:17.276Z,6.00
2018-12-21T09:19:45.497Z,6.00
2018-12-21T09:22:13.673Z,6.10
2018-12-21T09:24:41.831Z,6.10
2018-12-21T09:27:10.034Z,6.10
2018-12-21T09:29:38.215Z,6.20
2018-12-21T09:32:06.568Z,6.00
2018-12-21T09:34:34.817Z,6.10
2018-12-21T09:37:02.994Z,6.20
2018-12-21T09:39:31.224Z,6.30
2018-12-21T09:41:59.603Z,6.30
2018-12-21T09:44:27.793Z,6.20
2018-12-21T09:46:56.094Z,6.30
2018-12-21T09:49:24.311Z,6.20
2018-12-21T09:51:52.517Z,6.40
2018-12-21T09:54:20.689Z,6.50
2018-12-21T09:56:48.891Z,6.60
2018-12-21T09:59:17.095Z,6.40
2018-12-21T10:01:45.278Z,6.50
2018-12-21T10:04:13.476Z,6.50
2018-12-21T10:06:41.688Z,6.60
2018-12-21T10:09:09.934Z,6.50
2018-12-21T10:11:38.147Z,6.50
2018-12-21T10:14:06.428Z,6.40
2018-12-21T10:16:34.637Z,6.60
2018-12-21T10:19:02.840Z,6.60
2018-12-21T10:21:31.013Z,6.60
2018-12-21T10:23:59.200Z,6.60
2018-12-21T10:26:27.453Z,6.60
2018-12-21T10:28:55.757Z,6.60
2018-12-21T10:31:23.932Z,6.70
2018-12-21T10:33:52.130Z,6.70
2018-12-21T10:36:20.342Z,6.70
2018-12-21T10:38:48.511Z,6.70
2018-12-21T10:41:16.722Z,6.80
2018-12-21T10:43:44.918Z,6.80
2018-12-21T10:46:13.115Z,6.80
2018-12-21T10:48:41.325Z,6.80
2018-12-21T10:51:09.479Z,6.80
2018-12-21T10:53:39.385Z,6.80
2018-12-21T10:56:07.952Z,6.90
2018-12-21T10:58:36.134Z,6.90
2018-12-21T11:01:04.382Z,6.80
2018-12-21T11:03:32.605Z,6.80
2018-12-21T11:06:00.814Z,6.90
2018-12-21T11:08:28.985Z,6.80
2018-12-21T11:10:57.303Z,6.80
2018-12-21T11:13:26.388Z,6.90
2018-12-21T11:15:54.570Z,6.90
2018-12-21T11:18:22.768Z,6.90
2018-12-21T11:20:50.930Z,6.80
2018-12-21T11:23:19.144Z,6.90
2018-12-21T11:25:47.450Z,6.90
2018-12-21T11:28:34.375Z,7.00
2018-12-21T11:31:02.966Z,7.00
2018-12-21T11:33:31.175Z,6.80
2018-12-21T11:35:59.736Z,6.70
2018-12-21T11:38:28.176Z,7.10
2018-12-21T11:40:56.393Z,7.10
2018-12-21T11:43:24.617Z,7.10
2018-12-21T11:45:53.104Z,7.20
2018-12-21T11:48:21.310Z,7.10
2018-12-21T11:50:49.485Z,7.10
2018-12-21T11:53:17.687Z,7.00
2018-12-21T11:55:45.852Z,7.00
2018-12-21T11:58:14.085Z,7.10
2018-12-21T12:00:42.270Z,7.00
2018-12-21T12:03:10.445Z,7.00
2018-12-21T12:05:38.617Z,7.10
2018-12-21T12:08:06.829Z,7.10
2018-12-21T12:10:35.000Z,7.20
2018-12-21T12:13:03.255Z,7.20
2018-12-21T12:15:31.810Z,7.10
2018-12-21T12:17:59.989Z,7.30
2018-12-21T12:20:28.176Z,7.20
2018-12-21T12:22:56.541Z,7.20
2018-12-21T12:25:24.715Z,7.20
2018-12-21T12:27:52.897Z,7.30
2018-12-21T12:30:21.343Z,7.20
2018-12-21T12:32:49.520Z,7.20
2018-12-21T12:35:17.729Z,7.20
2018-12-21T12:37:45.953Z,7.20
2018-12-21T12:40:14.106Z,7.20
2018-12-21T12:42:42.271Z,7.20
2018-12-21T12:45:10.475Z,7.20
2018-12-21T12:47:38.632Z,7.10
2018-12-21T12:50:07.109Z,7.20
2018-12-21T12:52:35.300Z,7.10
2018-12-21T12:55:03.885Z,7.10
2018-12-21T12:57:32.082Z,7.10
2018-12-21T13:00:00.285Z,7.20
2018-12-21T13:02:28.468Z,7.10
2018-12-21T13:04:56.619Z,7.10
2018-12-21T13:07:24.837Z,7.00
2018-12-21T13:09:53.157Z,7.10
2018-12-21T13:12:22.090Z,7.00
2018-12-21T13:14:50.296Z,7.00
2018-12-21T13:17:18.513Z,7.10
2018-12-21T13:19:46.684Z,7.10
2018-12-21T13:22:14.867Z,7.20
2018-12-21T13:24:43.058Z,7.10
2018-12-21T13:27:11.231Z,7.20
2018-12-21T13:29:39.406Z,7.20
2018-12-21T13:32:07.568Z,7.20
2018-12-21T13:34:35.754Z,7.10
2018-12-21T13:37:03.912Z,7.00
2018-12-21T13:39:32.150Z,7.10
2018-12-21T13:42:00.309Z,7.00
2018-12-21T13:44:28.469Z,7.10
2018-12-21T13:46:56.665Z,7.10
2018-12-21T13:49:25.424Z,6.90
2018-12-21T13:51:53.624Z,7.10
2018-12-21T13:54:21.829Z,7.00
2018-12-21T13:56:50.004Z,7.00
2018-12-21T13:59:18.214Z,7.00
2018-12-21T14:01:46.428Z,7.00
2018-12-21T14:04:14.595Z,7.00
2018-12-21T14:06:42.794Z,6.90
2018-12-21T14:09:10.977Z,6.90
2018-12-21T14:11:39.199Z,6.70
2018-12-21T14:14:07.365Z,6.80
2018-12-21T14:16:35.528Z,6.90
2018-12-21T14:19:03.832Z,6.90
2018-12-21T14:21:32.017Z,6.90
2018-12-21T14:24:00.209Z,6.90
2018-12-21T14:26:28.420Z,7.00
2018-12-21T14:28:56.692Z,6.90
2018-12-21T14:31:24.901Z,6.70
2018-12-21T14:33:53.108Z,6.80
2018-12-21T14:36:21.276Z,6.90
2018-12-21T14:38:49.446Z,6.70
2018-12-21T14:41:17.633Z,6.70
2018-12-21T14:43:45.808Z,6.80
2018-12-21T14:46:13.972Z,6.70
2018-12-21T14:48:42.184Z,6.60
2018-12-21T14:51:10.348Z,6.60
2018-12-21T14:53:38.509Z,6.70
2018-12-21T14:56:06.709Z,6.50
2018-12-21T14:58:34.871Z,6.50
2018-12-21T15:01:03.043Z,6.80
2018-12-21T15:03:31.256Z,6.60
2018-12-21T15:05:59.486Z,6.50
2018-12-21T15:08:27.648Z,6.60
2018-12-21T15:10:55.877Z,6.70
2018-12-21T15:13:24.084Z,6.80
2018-12-21T15:15:52.251Z,6.60
2018-12-21T15:18:20.447Z,6.60
2018-12-21T15:20:48.621Z,6.70
2018-12-21T15:23:16.765Z,6.30
2018-12-21T15:25:46.176Z,6.20
2018-12-21T15:28:14.714Z,6.60
2018-12-21T15:30:42.876Z,6.60
2018-12-21T15:33:11.081Z,6.30
2018-12-21T15:35:39.280Z,6.40
2018-12-21T15:38:07.444Z,6.70
2018-12-21T15:40:35.640Z,6.80
2018-12-21T15:43:03.807Z,6.90
2018-12-21T15:45:32.657Z,6.70
2018-12-21T15:48:00.864Z,6.70
2018-12-21T15:50:29.034Z,6.90
2018-12-21T15:52:57.202Z,6.60
2018-12-21T15:55:25.411Z,6.60
2018-12-21T15:57:53.618Z,6.50
2018-12-21T16:00:21.982Z,6.60
2018-12-21T16:02:50.212Z,6.60
2018-12-21T16:05:18.417Z,6.70
2018-12-21T16:07:46.632Z,6.60
2018-12-21T16:10:14.862Z,6.60
2018-12-21T16:12:43.120Z,6.60
2018-12-21T16:15:11.287Z,6.60
2018-12-21T16:17:39.524Z,6.50
2018-12-21T16:20:11.947Z,6.50
2018-12-21T16:22:42.510Z,6.50
2018-12-21T16:25:10.701Z,6.40
2018-12-21T16:27:39.975Z,6.50
2018-12-21T16:30:10.176Z,6.40
2018-12-21T16:32:38.324Z,6.50
2018-12-21T16:35:06.522Z,6.70
2018-12-21T16:37:34.787Z,6.40
2018-12-21T16:40:03.140Z,6.30
2018-12-21T16:42:31.334Z,6.40
2018-12-21T16:44:59.538Z,6.60
2018-12-21T16:47:27.788Z,6.50
2018-12-21T16:49:56.901Z,6.50
2018-12-21T16:52:25.083Z,6.50
2018-12-21T16:54:53.253Z,6.60
2018-12-21T16:57:21.450Z,6.60
2018-12-21T16:59:49.639Z,6.60
2018-12-21T17:02:17.799Z,6.50
2018-12-21T17:04:45.964Z,6.50
2018-12-21T17:07:14.353Z,6.30
2018-12-21T17:09:42.560Z,6.40
2018-12-21T17:12:10.848Z,6.40
2018-12-21T17:14:39.283Z,6.40
2018-12-21T17:17:07.451Z,6.50
2018-12-21T17:19:35.626Z,6.30
2018-12-21T17:22:03.879Z,6.60
2018-12-21T17:24:32.059Z,6.50
2018-12-21T17:27:00.233Z,6.60
2018-12-21T17:29:28.896Z,6.40
2018-12-21T17:31:57.280Z,6.50
2018-12-21T17:34:25.511Z,6.30
2018-12-21T17:36:53.713Z,6.40
2018-12-21T17:39:21.866Z,6.40
2018-12-21T17:41:50.038Z,6.30
2018-12-21T17:44:18.232Z,6.40
2018-12-21T17:46:46.417Z,6.30
2018-12-21T17:49:14.593Z,6.40
2018-12-21T17:51:42.850Z,6.40
2018-12-21T17:54:11.019Z,6.30
2018-12-21T17:56:39.166Z,6.40
2018-12-21T17:59:07.419Z,6.30
2018-12-21T18:01:35.773Z,6.60
2018-12-21T18:04:04.872Z,6.50
2018-12-21T18:06:33.081Z,6.30
2018-12-21T18:09:01.284Z,6.50
2018-12-21T18:11:29.574Z,6.30
2018-12-21T18:13:57.788Z,6.30
2018-12-21T18:16:25.961Z,6.30
2018-12-21T18:18:54.133Z,6.10
2018-12-21T18:21:23.676Z,6.30
2018-12-21T18:23:51.848Z,6.20
2018-12-21T18:26:20.032Z,6.20
2018-12-21T18:28:48.232Z,6.30
2018-12-21T18:31:16.485Z,6.20
2018-12-21T18:33:44.746Z,3.80
2018-12-21T18:36:12.949Z,6.20
2018-12-21T18:38:41.141Z,6.10
2018-12-21T18:41:09.369Z,6.30
2018-12-21T18:43:37.562Z,6.20
2018-12-21T18:46:05.889Z,6.10
2018-12-21T18:48:34.114Z,6.10
2018-12-21T18:51:02.325Z,5.90
2018-12-21T18:53:30.539Z,6.20
2018-12-21T18:55:58.780Z,6.30
2018-12-21T18:58:26.985Z,6.10
2018-12-21T19:00:55.196Z,6.10
2018-12-21T19:03:23.585Z,6.10
2018-12-21T19:05:51.809Z,6.20
2018-12-21T19:08:19.983Z,6.10
2018-12-21T19:10:48.148Z,6.20
2018-12-21T19:13:16.348Z,5.80
2018-12-21T19:15:44.600Z,6.00
2018-12-21T19:18:12.882Z,6.00
2018-12-21T19:20:41.088Z,6.10
2018-12-21T19:23:09.315Z,6.10
2018-12-21T19:25:37.630Z,6.00
2018-12-21T19:28:05.879Z,6.00
2018-12-21T19:30:34.092Z,6.20
2018-12-21T19:33:02.253Z,6.10
2018-12-21T19:35:30.794Z,5.90
2018-12-21T19:37:58.978Z,6.00
2018-12-21T19:40:27.149Z,6.10
2018-12-21T19:42:55.368Z,6.20
2018-12-21T19:45:23.589Z,6.10
2018-12-21T19:47:51.761Z,6.00
2018-12-21T19:50:20.017Z,6.00
2018-12-21T19:52:48.246Z,5.90
2018-12-21T19:55:23.127Z,5.90
2018-12-21T19:57:51.301Z,6.00
2018-12-21T20:00:19.469Z,6.00
2018-12-21T20:02:47.737Z,5.90
2018-12-21T20:05:15.901Z,5.90
2018-12-21T20:07:44.098Z,5.90
2018-12-21T20:10:12.486Z,6.00
2018-12-21T20:12:40.647Z,5.90
2018-12-21T20:15:11.217Z,5.90
2018-12-21T20:17:41.092Z,5.90
2018-12-21T20:20:12.125Z,6.00
2018-12-21T20:22:40.298Z,6.00
2018-12-21T20:25:09.304Z,6.00
2018-12-21T20:27:37.598Z,6.00
2018-12-21T20:30:10.612Z,5.90
2018-12-21T20:32:38.805Z,6.00
2018-12-21T20:35:09.369Z,6.00
2018-12-21T20:37:37.666Z,6.00
2018-12-21T20:40:10.864Z,6.10
2018-12-21T20:42:39.826Z,6.10
2018-12-21T20:45:11.216Z,6.00
2018-12-21T20:47:39.486Z,6.00
2018-12-21T20:50:12.981Z,6.10
2018-12-21T20:52:41.230Z,6.00
2018-12-21T20:55:10.405Z,6.10
2018-12-21T20:57:42.914Z,6.10
2018-12-21T21:00:15.891Z,6.00
2018-12-21T21:02:44.802Z,6.20
2018-12-21T21:05:12.989Z,6.10
2018-12-21T21:07:41.153Z,6.20
2018-12-21T21:10:11.739Z,6.00
2018-12-21T21:12:40.279Z,5.80
2018-12-21T21:15:11.911Z,5.90
2018-12-21T21:17:40.093Z,5.90
2018-12-21T21:20:13.277Z,5.90
2018-12-21T21:22:42.606Z,6.00
2018-12-21T21:25:10.781Z,6.10
2018-12-21T21:27:39.012Z,6.10
2018-12-21T21:30:15.529Z,6.20
2018-12-21T21:32:43.776Z,6.20
2018-12-21T21:35:11.998Z,6.30
2018-12-21T21:37:40.231Z,6.30
2018-12-21T21:40:17.800Z,6.30
2018-12-21T21:42:47.501Z,6.40
2018-12-21T21:45:15.723Z,6.50
2018-12-21T21:47:44.004Z,6.50
2018-12-21T21:50:12.303Z,6.50
2018-12-21T21:52:40.550Z,6.50
2018-12-21T21:55:08.872Z,6.60
2018-12-21T21:57:39.559Z,6.60
2018-12-21T22:00:11.325Z,6.70
2018-12-21T22:02:39.549Z,6.80
2018-12-21T22:05:07.757Z,6.70
2018-12-21T22:07:36.046Z,6.80
2018-12-21T22:10:07.956Z,6.90
2018-12-21T22:12:36.174Z,6.80
2018-12-21T22:15:06.060Z,6.80
2018-12-21T22:17:34.264Z,6.80
2018-12-21T22:20:02.510Z,6.90
2018-12-21T22:22:30.686Z,6.90
2018-12-21T22:24:58.850Z,7.00
2018-12-21T22:27:27.067Z,7.00
2018-12-21T22:29:55.232Z,7.00
2018-12-21T22:32:23.416Z,7.10
2018-12-21T22:34:51.621Z,7.00
2018-12-21T22:37:19.790Z,7.10
2018-12-21T22:39:47.957Z,7.10
2018-12-21T22:42:16.148Z,7.20
2018-12-21T22:44:44.345Z,7.20
2018-12-21T22:47:12.550Z,7.20
2018-12-21T22:49:40.784Z,7.20
2018-12-21T22:52:08.949Z,7.20
2018-12-21T22:54:37.145Z,7.30
2018-12-21T22:57:05.348Z,7.40
2018-12-21T22:59:33.522Z,7.40
2018-12-21T23:02:01.733Z,7.30
2018-12-21T23:04:29.920Z,7.40
2018-12-21T23:06:58.117Z,7.50
2018-12-21T23:09:26.264Z,7.40
2018-12-21T23:11:54.456Z,7.50
2018-12-21T23:14:22.625Z,7.50
2018-12-21T23:16:50.780Z,7.60
2018-12-21T23:19:19.009Z,7.60
2018-12-21T23:21:47.230Z,7.60
2018-12-21T23:24:17.490Z,7.60
2018-12-21T23:26:45.635Z,7.60
2018-12-21T23:29:13.800Z,7.70
2018-12-21T23:31:41.960Z,7.70
2018-12-21T23:34:10.167Z,7.70
2018-12-21T23:36:38.319Z,7.80
2018-12-21T23:39:07.100Z,7.90
2018-12-21T23:41:35.297Z,7.90
2018-12-21T23:44:03.517Z,7.90
2018-12-21T23:46:31.686Z,8.00
2018-12-21T23:48:59.888Z,7.90
2018-12-21T23:51:28.057Z,8.00
2018-12-21T23:53:56.257Z,8.00
2018-12-21T23:56:24.452Z,8.10
2018-12-21T23:58:52.609Z,8.10
